Time;durP1;ratioP1;P1;durP2;ratioP2;P2;SDS_P1;SDS_P2;PMS_P1;PMS_P2;Temp;Humidity;BMP_temperature;BMP_pressure;BME280_temperature;BME280_humidity;BME280_pressure;Samples;Min_cycle;Max_cycle;Signal;HPM_P1;HPM_P2
2023/04/18 00:00:16;;;;;;;5.78;4.18;;;;;;;15.41;63.35;102556.41;5071972;28;20032;-56
2023/04/18 00:02:42;;;;;;;5.93;4.65;;;;;;;15.42;63.40;102559.94;5069065;28;20104;-56
2023/04/18 00:05:08;;;;;;;4.57;4.13;;;;;;;15.42;63.33;102559.94;5068678;28;20544;-56
2023/04/18 00:07:36;;;;;;;5.78;4.28;;;;;;;15.41;63.21;102559.09;5068213;28;20048;-56
2023/04/18 00:10:04;;;;;;;5.05;4.40;;;;;;;15.41;63.31;102561.78;5068193;28;20039;-56
2023/04/18 00:12:30;;;;;;;6.13;4.93;;;;;;;15.40;63.13;102560.06;5069135;28;20021;-56
2023/04/18 00:14:57;;;;;;;5.70;4.75;;;;;;;15.39;63.24;102554.78;5068296;28;20120;-56
2023/04/18 00:17:25;;;;;;;5.28;4.78;;;;;;;15.39;63.35;102555.63;5068530;28;20029;-57
2023/04/18 00:19:51;;;;;;;5.10;4.25;;;;;;;15.40;63.30;102556.47;5067820;28;20048;-57
2023/04/18 00:22:21;;;;;;;5.38;4.50;;;;;;;15.39;63.01;102561.00;5068083;28;20033;-56
2023/04/18 00:24:46;;;;;;;5.32;4.53;;;;;;;15.39;63.53;102552.94;5061660;28;20029;-57
2023/04/18 00:27:12;;;;;;;4.60;3.90;;;;;;;15.40;63.52;102556.47;5068830;28;20167;-56
2023/04/18 00:29:39;;;;;;;5.40;4.72;;;;;;;15.39;63.31;102552.09;5050337;28;20025;-56
2023/04/18 00:32:05;;;;;;;5.07;4.00;;;;;;;15.37;63.16;102551.31;5050233;28;20029;-56
2023/04/18 00:34:30;;;;;;;5.18;4.30;;;;;;;15.38;63.16;102558.41;5068969;28;20029;-56
2023/04/18 00:36:55;;;;;;;5.20;4.45;;;;;;;15.38;62.99;102561.97;5067800;28;20060;-57
2023/04/18 00:39:21;;;;;;;5.28;4.72;;;;;;;15.37;63.18;102548.63;5068433;28;20120;-56
2023/04/18 00:41:46;;;;;;;5.50;4.55;;;;;;;15.37;63.24;102548.63;5067412;28;20025;-57
2023/04/18 00:44:11;;;;;;;5.75;4.50;;;;;;;15.37;63.16;102552.16;5068757;28;20497;-56
2023/04/18 00:46:37;;;;;;;4.85;4.25;;;;;;;15.37;63.27;102556.69;5067438;28;20082;-56
2023/04/18 00:49:02;;;;;;;5.57;4.18;;;;;;;15.37;62.94;102551.31;5067710;28;20088;-56
2023/04/18 00:51:28;;;;;;;4.95;4.30;;;;;;;15.35;63.29;102554.06;5068411;28;20451;-56
2023/04/18 00:53:53;;;;;;;5.65;4.55;;;;;;;15.35;63.13;102543.34;5068671;28;20017;-56
2023/04/18 00:56:19;;;;;;;5.18;4.40;;;;;;;15.34;63.20;102549.66;5067918;28;20607;-56
2023/04/18 00:58:44;;;;;;;5.30;4.80;;;;;;;15.35;63.47;102542.47;5066715;28;20093;-56
2023/04/18 01:01:10;;;;;;;4.97;4.47;;;;;;;15.35;63.33;102551.41;5067728;28;20036;-56
2023/04/18 01:03:36;;;;;;;5.03;4.53;;;;;;;15.35;63.05;102550.53;5067997;28;20111;-56
2023/04/18 01:06:01;;;;;;;4.68;4.05;;;;;;;15.33;63.08;102542.56;5067245;28;20040;-56
2023/04/18 01:08:27;;;;;;;6.10;4.78;;;;;;;15.34;63.31;102546.09;5067609;28;20032;-56
2023/04/18 01:10:52;;;;;;;4.97;4.22;;;;;;;15.34;63.36;102551.47;5067371;28;20028;-56
2023/04/18 01:13:19;;;;;;;5.38;4.82;;;;;;;15.34;63.02;102546.09;5073974;28;20511;-56
2023/04/18 01:15:48;;;;;;;5.22;4.40;;;;;;;15.34;63.08;102546.09;5068210;28;20080;-56
2023/04/18 01:18:16;;;;;;;6.22;4.63;;;;;;;15.33;63.32;102544.38;5067372;28;20058;-56
2023/04/18 01:20:48;;;;;;;4.82;4.38;;;;;;;15.32;63.05;102543.50;5067919;28;20077;-56
2023/04/18 01:23:14;;;;;;;5.20;4.47;;;;;;;15.33;63.20;102539.03;5066965;28;20028;-56
2023/04/18 01:25:40;;;;;;;4.88;4.25;;;;;;;15.33;63.05;102541.72;5066984;28;20029;-56
2023/04/18 01:28:06;;;;;;;5.38;4.45;;;;;;;15.32;63.02;102537.28;5067445;28;20385;-56
2023/04/18 01:30:34;;;;;;;5.13;4.63;;;;;;;15.31;63.21;102540.94;5066703;28;20036;-56
2023/04/18 01:33:01;;;;;;;5.53;4.70;;;;;;;15.31;63.02;102540.94;5067024;28;20028;-56
2023/04/18 01:35:27;;;;;;;5.55;4.22;;;;;;;15.31;62.85;102536.41;5066325;28;20048;-56
2023/04/18 01:37:52;;;;;;;4.65;4.25;;;;;;;15.31;63.03;102524.84;5067035;28;20033;-56
2023/04/18 01:40:18;;;;;;;4.63;4.13;;;;;;;15.30;62.88;102531.13;5067013;28;20497;-56
2023/04/18 01:42:43;;;;;;;5.80;4.32;;;;;;;15.30;62.96;102529.31;5066882;28;20040;-56
2023/04/18 01:45:10;;;;;;;5.40;4.38;;;;;;;15.29;63.39;102524.91;5066878;28;20109;-56
2023/04/18 01:47:36;;;;;;;5.50;4.35;;;;;;;15.30;63.32;102525.78;5065823;28;20043;-56
2023/04/18 01:50:02;;;;;;;5.60;4.88;;;;;;;15.29;62.86;102529.38;5066510;28;20425;-56
2023/04/18 01:52:28;;;;;;;6.32;4.57;;;;;;;15.29;62.80;102530.28;5067220;28;20036;-56
2023/04/18 01:54:53;;;;;;;6.57;4.75;;;;;;;15.29;63.34;102529.38;5066269;28;20021;-57
2023/04/18 01:57:18;;;;;;;5.20;4.70;;;;;;;15.29;63.11;102524.03;5066418;28;20068;-56
2023/04/18 01:59:44;;;;;;;6.32;4.97;;;;;;;15.29;63.27;102526.72;5066519;28;20387;-56
2023/04/18 02:02:10;;;;;;;5.85;4.50;;;;;;;15.27;63.19;102529.50;5066687;28;20055;-56
2023/04/18 02:04:35;;;;;;;5.05;4.43;;;;;;;15.28;63.28;102527.69;5046531;28;20072;-56
2023/04/18 02:07:01;;;;;;;4.75;4.10;;;;;;;15.27;63.02;102529.50;5065364;28;20500;-56
2023/04/18 02:09:26;;;;;;;5.05;4.55;;;;;;;15.27;63.16;102528.63;5066247;28;20044;-57
2023/04/18 02:11:53;;;;;;;4.68;4.15;;;;;;;15.27;63.09;102526.81;5064696;28;20082;-56
2023/04/18 02:14:18;;;;;;;5.57;4.28;;;;;;;15.27;63.35;102528.63;5070341;28;20063;-56
2023/04/18 02:16:43;;;;;;;6.43;4.53;;;;;;;15.25;63.24;102521.53;5064313;28;20079;-56
2023/04/18 02:19:09;;;;;;;5.30;4.43;;;;;;;15.25;62.92;102524.22;5065981;28;20040;-56
2023/04/18 02:21:34;;;;;;;6.10;4.85;;;;;;;15.25;62.94;102526.91;5066491;28;20536;-56
2023/04/18 02:24:00;;;;;;;4.40;4.00;;;;;;;15.25;63.24;102516.16;5065539;28;20041;-56
2023/04/18 02:26:25;;;;;;;5.75;4.13;;;;;;;15.26;62.93;102517.03;5066132;28;20033;-56
2023/04/18 02:28:50;;;;;;;4.55;3.95;;;;;;;15.25;62.95;102516.16;5065386;28;20784;-56
2023/04/18 02:31:16;;;;;;;5.63;4.20;;;;;;;15.24;62.81;102514.41;5066439;28;20064;-56
2023/04/18 02:33:42;;;;;;;5.72;4.07;;;;;;;15.24;62.88;102511.75;5066329;28;20025;-56
2023/04/18 02:36:08;;;;;;;5.55;4.30;;;;;;;15.23;63.16;102523.44;5071134;28;20032;-56
2023/04/18 02:38:34;;;;;;;4.70;4.18;;;;;;;15.23;62.74;102518.06;5071345;28;20037;-56
2023/04/18 02:40:59;;;;;;;5.35;4.53;;;;;;;15.22;63.11;102513.66;5064959;28;20036;-56
2023/04/18 02:43:24;;;;;;;4.85;4.30;;;;;;;15.24;62.64;102519.78;5065411;28;20071;-57
2023/04/18 02:45:50;;;;;;;4.70;4.05;;;;;;;15.23;62.79;102517.19;5067014;28;20036;-56
2023/04/18 02:48:15;;;;;;;5.28;4.30;;;;;;;15.22;62.68;102521.69;5065454;28;20060;-56
2023/04/18 02:50:40;;;;;;;4.50;3.97;;;;;;;15.22;62.67;102524.38;5026115;28;20049;-56
2023/04/18 02:53:06;;;;;;;4.75;4.25;;;;;;;15.21;62.98;102511.94;5042924;28;20515;-56
2023/04/18 02:55:31;;;;;;;4.72;3.88;;;;;;;15.21;63.05;102511.94;5045946;28;20033;-56
2023/04/18 02:57:57;;;;;;;4.10;3.63;;;;;;;15.22;63.07;102515.47;5042673;28;20032;-56
2023/04/18 03:00:22;;;;;;;5.25;4.40;;;;;;;15.20;62.92;102514.69;5042552;28;20118;-56
2023/04/18 03:02:48;;;;;;;5.05;4.32;;;;;;;15.21;62.64;102516.41;5042654;28;20037;-56
2023/04/18 03:05:15;;;;;;;4.53;4.05;;;;;;;15.21;63.04;102514.63;5042363;28;20044;-56
2023/04/18 03:07:40;;;;;;;4.82;4.35;;;;;;;15.21;62.55;102514.63;5042185;28;20036;-56
2023/04/18 03:10:06;;;;;;;5.10;4.57;;;;;;;15.21;62.86;102519.09;5042950;28;20418;-56
2023/04/18 03:12:31;;;;;;;4.68;4.00;;;;;;;15.20;62.81;102515.56;5043978;28;20029;-56
2023/04/18 03:14:57;;;;;;;5.55;4.40;;;;;;;15.21;62.54;102517.31;5042595;28;20033;-56
2023/04/18 03:17:22;;;;;;;5.22;4.32;;;;;;;15.21;62.72;102513.72;5042128;28;20546;-56
2023/04/18 03:19:48;;;;;;;5.22;4.18;;;;;;;15.20;62.44;102515.56;5042737;28;20033;-56
2023/04/18 03:22:15;;;;;;;4.75;3.92;;;;;;;15.21;62.68;102519.09;5041710;28;20029;-56
2023/04/18 03:24:40;;;;;;;5.18;4.18;;;;;;;15.18;62.73;102517.47;5047036;28;20029;-56
2023/04/18 03:27:05;;;;;;;5.32;4.57;;;;;;;15.18;62.81;102514.78;5046055;28;20405;-56
2023/04/18 03:29:31;;;;;;;4.95;3.72;;;;;;;15.17;62.62;102518.44;5046022;28;20031;-56
2023/04/18 03:31:56;;;;;;;4.30;3.83;;;;;;;15.17;62.63;102513.06;5046303;28;20087;-56
2023/04/18 03:34:21;;;;;;;4.50;3.78;;;;;;;15.17;62.63;102518.44;5046609;28;20113;-56
2023/04/18 03:36:47;;;;;;;4.93;4.43;;;;;;;15.17;62.76;102520.22;5025472;28;20057;-56
2023/04/18 03:39:12;;;;;;;4.53;3.80;;;;;;;15.15;62.54;102520.31;5045658;28;20036;-57
2023/04/18 03:41:37;;;;;;;5.55;4.10;;;;;;;15.16;62.67;102521.19;5045781;28;20480;-56
2023/04/18 03:44:03;;;;;;;4.30;3.88;;;;;;;15.15;62.68;102523.00;5045979;28;20038;-56
2023/04/18 03:46:29;;;;;;;4.78;4.10;;;;;;;15.15;62.60;102519.44;5045863;28;20095;-56
2023/04/18 03:48:54;;;;;;;5.72;4.50;;;;;;;15.14;62.20;102520.41;5049473;28;20525;-56
2023/04/18 03:51:19;;;;;;;5.13;4.10;;;;;;;15.13;62.17;102522.22;5069629;28;20040;-56
2023/04/18 03:53:45;;;;;;;4.15;3.75;;;;;;;15.13;62.23;102522.22;5068503;28;20074;-56
2023/04/18 03:56:10;;;;;;;4.35;3.95;;;;;;;15.14;62.48;102525.78;5068469;28;20475;-58
2023/04/18 03:58:36;;;;;;;4.80;3.75;;;;;;;15.14;62.09;102523.97;5067461;28;20040;-58
2023/04/18 04:01:01;;;;;;;6.43;4.30;;;;;;;15.13;61.91;102521.34;5069065;28;20028;-58
2023/04/18 04:03:27;;;;;;;4.68;3.95;;;;;;;15.13;62.31;102526.72;5067169;28;20120;-58
2023/04/18 04:05:53;;;;;;;4.18;3.80;;;;;;;15.12;62.23;102527.69;5073011;28;20430;-57
2023/04/18 04:08:19;;;;;;;5.25;4.35;;;;;;;15.12;62.39;102519.66;5069020;28;20037;-57
2023/04/18 04:10:44;;;;;;;4.30;3.90;;;;;;;15.11;62.27;102517.91;5069203;28;20040;-57
2023/04/18 04:13:10;;;;;;;4.05;3.75;;;;;;;15.10;62.44;102514.34;5067764;28;20044;-55
2023/04/18 04:15:37;;;;;;;4.55;4.07;;;;;;;15.10;62.18;102517.03;5066765;28;20470;-55
2023/04/18 04:18:03;;;;;;;4.28;3.55;;;;;;;15.10;62.14;102517.03;5069002;28;20032;-55
2023/04/18 04:20:28;;;;;;;5.00;4.40;;;;;;;15.10;62.37;102518.84;5068566;28;20174;-55
2023/04/18 04:22:55;;;;;;;5.00;3.83;;;;;;;15.10;61.94;102521.50;5069502;28;20430;-55
2023/04/18 04:25:23;;;;;;;4.47;3.78;;;;;;;15.09;62.11;102522.47;5068308;28;20040;-55
2023/04/18 04:27:52;;;;;;;5.05;4.10;;;;;;;15.09;62.29;102523.34;5068539;28;20059;-55
2023/04/18 04:30:17;;;;;;;5.05;4.35;;;;;;;15.09;61.85;102525.16;5067854;28;20086;-55
2023/04/18 04:32:43;;;;;;;4.55;4.03;;;;;;;15.08;61.80;102524.31;5067958;28;20413;-56
2023/04/18 04:35:09;;;;;;;4.63;3.88;;;;;;;15.08;61.75;102524.31;5068460;28;20428;-55
2023/04/18 04:37:34;;;;;;;4.28;3.88;;;;;;;15.08;61.93;102523.41;5049874;28;20040;-55
2023/04/18 04:40:00;;;;;;;5.32;3.92;;;;;;;15.08;62.04;102524.31;5044679;28;20041;-56
2023/04/18 04:42:25;;;;;;;4.55;4.15;;;;;;;15.07;61.69;102527.06;5068636;28;20135;-56
2023/04/18 04:44:52;;;;;;;4.38;3.70;;;;;;;15.07;61.78;102530.63;5075436;28;20036;-55
2023/04/18 04:47:18;;;;;;;5.35;4.63;;;;;;;15.07;61.85;102532.44;5067637;28;20036;-55
2023/04/18 04:49:44;;;;;;;4.55;3.50;;;;;;;15.06;61.94;102534.25;5067374;28;20048;-55
2023/04/18 04:52:09;;;;;;;5.13;3.92;;;;;;;15.06;61.93;102534.25;5067085;28;20447;-55
2023/04/18 04:54:35;;;;;;;4.13;3.72;;;;;;;15.06;62.09;102536.94;5067599;28;20036;-55
2023/04/18 04:57:01;;;;;;;4.82;3.90;;;;;;;15.04;62.09;102528.09;5067481;28;20379;-55
2023/04/18 04:59:26;;;;;;;4.22;3.80;;;;;;;15.05;61.71;102532.53;5067145;28;20044;-55
2023/04/18 05:01:51;;;;;;;4.90;3.63;;;;;;;15.05;61.66;102541.44;5068083;28;20037;-55
2023/04/18 05:04:17;;;;;;;5.18;3.67;;;;;;;15.04;62.01;102534.34;5068103;28;20131;-55
2023/04/18 05:06:42;;;;;;;4.60;3.90;;;;;;;15.04;61.50;102547.75;5066945;28;20489;-55
2023/04/18 05:09:08;;;;;;;3.97;3.35;;;;;;;15.04;61.64;102547.75;5061149;28;20070;-55
2023/04/18 05:11:33;;;;;;;5.00;3.83;;;;;;;15.04;61.80;102542.38;5069552;28;20077;-55
2023/04/18 05:13:59;;;;;;;4.55;4.03;;;;;;;15.03;61.44;102537.09;5076129;28;20112;-55
2023/04/18 05:16:25;;;;;;;4.18;3.70;;;;;;;15.02;61.66;102530.88;5071300;28;20047;-55
2023/04/18 05:18:50;;;;;;;3.92;3.58;;;;;;;15.01;61.37;102545.22;5066486;28;20035;-55
2023/04/18 05:21:15;;;;;;;4.07;3.67;;;;;;;15.02;61.45;102546.09;5066038;28;20028;-55
2023/04/18 05:23:41;;;;;;;4.18;3.70;;;;;;;15.02;61.83;102543.41;5065087;28;20474;-55
2023/04/18 05:26:06;;;;;;;4.30;3.53;;;;;;;15.01;61.36;102549.75;5069285;28;20029;-55
2023/04/18 05:28:32;;;;;;;4.78;4.03;;;;;;;15.02;61.42;102557.72;5069294;28;20401;-55
2023/04/18 05:31:00;;;;;;;4.15;3.40;;;;;;;15.02;61.30;102551.44;5069039;28;20043;-56
2023/04/18 05:33:27;;;;;;;4.22;3.83;;;;;;;15.00;61.29;102556.94;5049487;28;20059;-55
2023/04/18 05:35:53;;;;;;;4.45;3.60;;;;;;;15.00;61.75;102556.94;5066487;28;20032;-55
2023/04/18 05:38:18;;;;;;;4.07;3.67;;;;;;;15.01;61.42;102555.09;5066548;28;20028;-55
2023/04/18 05:40:44;;;;;;;5.57;3.78;;;;;;;15.00;61.52;102553.34;5048167;28;20494;-55
2023/04/18 05:43:09;;;;;;;4.13;3.72;;;;;;;15.00;61.59;102558.72;5063645;28;20033;-55
2023/04/18 05:45:35;;;;;;;5.28;4.00;;;;;;;14.99;61.30;102563.22;5066652;28;20116;-55
2023/04/18 05:48:00;;;;;;;6.43;4.80;;;;;;;15.01;61.46;102565.84;5070217;28;20431;-55
2023/04/18 05:50:25;;;;;;;6.47;4.55;;;;;;;14.99;61.17;102568.59;5067472;28;20060;-55
2023/04/18 05:52:51;;;;;;;6.40;4.63;;;;;;;14.99;61.24;102573.97;5063343;28;20034;-55
2023/04/18 05:55:16;;;;;;;6.30;5.05;;;;;;;14.99;61.75;102575.78;5064900;28;20032;-55
2023/04/18 05:57:42;;;;;;;7.57;5.50;;;;;;;14.98;61.79;102571.34;5066963;28;20111;-55
2023/04/18 06:00:10;;;;;;;7.80;4.82;;;;;;;14.97;61.28;102575.00;5065753;28;20029;-55
2023/04/18 06:02:36;;;;;;;5.97;4.82;;;;;;;14.97;61.57;102575.88;5066905;28;20029;-55
2023/04/18 06:05:01;;;;;;;10.40;6.03;;;;;;;14.96;61.53;102579.47;5066808;28;20532;-55
2023/04/18 06:07:26;;;;;;;9.20;5.85;;;;;;;14.96;61.44;102575.94;5046524;28;20394;-55
2023/04/18 06:09:52;;;;;;;5.22;4.68;;;;;;;14.97;61.84;102583.06;5066665;28;20031;-55
2023/04/18 06:12:18;;;;;;;7.53;5.32;;;;;;;14.96;61.57;102581.31;5043418;28;20028;-55
2023/04/18 06:14:43;;;;;;;7.93;5.25;;;;;;;14.94;61.32;102583.22;5067657;28;20021;-55
2023/04/18 06:17:11;;;;;;;8.02;5.53;;;;;;;14.95;61.35;102582.28;5066017;28;20466;-55
2023/04/18 06:19:37;;;;;;;7.45;5.93;;;;;;;14.94;61.52;102586.75;5064979;28;20036;-55
2023/04/18 06:22:02;;;;;;;7.22;5.45;;;;;;;14.94;61.55;102585.88;5064995;28;20162;-55
2023/04/18 06:24:28;;;;;;;9.85;6.30;;;;;;;14.95;61.79;102587.63;5067326;28;20028;-57
2023/04/18 06:26:54;;;;;;;8.50;5.93;;;;;;;14.94;61.48;102585.88;5067344;28;20032;-57
2023/04/18 06:29:19;;;;;;;8.48;5.88;;;;;;;14.93;61.33;102586.84;5066743;28;20359;-57
2023/04/18 06:31:47;;;;;;;11.13;6.13;;;;;;;14.93;61.25;102589.53;5067018;28;20085;-56
2023/04/18 06:34:12;;;;;;;8.13;5.68;;;;;;;14.92;61.73;102583.28;5068671;28;20029;-56
2023/04/18 06:36:38;;;;;;;9.27;6.03;;;;;;;14.93;61.60;102589.53;5065876;28;20031;-56
2023/04/18 06:39:03;;;;;;;8.38;6.22;;;;;;;14.92;61.70;102598.53;5064858;28;20099;-56
2023/04/18 06:41:29;;;;;;;9.27;6.57;;;;;;;14.94;61.37;102591.25;5040058;28;20059;-56
2023/04/18 06:43:55;;;;;;;9.80;6.00;;;;;;;14.93;61.38;102594.91;5066984;28;20135;-56
2023/04/18 06:46:20;;;;;;;6.80;5.68;;;;;;;14.93;61.60;102593.06;5066088;28;20082;-57
2023/04/18 06:48:46;;;;;;;8.05;6.05;;;;;;;14.94;61.09;102593.94;5066144;28;20054;-57
2023/04/18 06:51:11;;;;;;;8.95;6.18;;;;;;;14.92;61.25;102594.00;5063384;28;20061;-56
2023/04/18 06:53:37;;;;;;;8.68;6.30;;;;;;;14.93;61.09;102597.59;5069365;28;20435;-56
2023/04/18 06:56:02;;;;;;;8.50;5.80;;;;;;;14.93;61.37;102592.22;5062813;28;20036;-56
2023/04/18 06:58:29;;;;;;;8.63;6.43;;;;;;;14.91;61.54;102596.78;5066380;28;20069;-56
2023/04/18 07:00:54;;;;;;;10.02;6.03;;;;;;;14.92;61.15;102599.38;5047775;28;20082;-56
2023/04/18 07:03:19;;;;;;;9.07;5.32;;;;;;;14.92;61.10;102610.09;5048200;28;20032;-56
2023/04/18 07:05:45;;;;;;;9.57;6.00;;;;;;;14.92;61.43;102595.84;5060602;28;20021;-56
2023/04/18 07:08:10;;;;;;;7.60;6.38;;;;;;;14.93;61.05;102600.28;5069203;28;20044;-56
2023/04/18 07:10:36;;;;;;;8.25;6.20;;;;;;;14.93;61.24;102605.63;5065677;28;20559;-56
2023/04/18 07:13:02;;;;;;;8.85;6.50;;;;;;;14.93;61.21;102605.63;5066451;28;20032;-56
2023/04/18 07:15:27;;;;;;;8.93;6.78;;;;;;;14.93;60.92;102608.31;5065882;28;20044;-56
2023/04/18 07:17:53;;;;;;;7.90;6.47;;;;;;;14.93;61.29;102611.00;5066308;28;20036;-56
2023/04/18 07:20:18;;;;;;;9.63;6.03;;;;;;;14.93;61.22;102611.84;5066552;28;20074;-55
2023/04/18 07:22:44;;;;;;;7.43;5.57;;;;;;;14.94;60.88;102612.72;5068483;28;20103;-56
2023/04/18 07:25:10;;;;;;;10.13;6.13;;;;;;;14.93;60.90;102606.50;5066115;28;20033;-56
2023/04/18 07:27:36;;;;;;;8.65;6.15;;;;;;;14.94;61.25;102612.72;5058864;28;20390;-56
2023/04/18 07:30:02;;;;;;;8.82;6.00;;;;;;;14.93;61.03;102608.31;5066239;28;20064;-56
2023/04/18 07:32:28;;;;;;;9.30;5.88;;;;;;;14.92;60.92;102612.78;5066943;28;20028;-56
2023/04/18 07:34:54;;;;;;;8.10;5.93;;;;;;;14.93;60.88;102613.69;5065697;28;20367;-56
2023/04/18 07:37:20;;;;;;;9.55;5.65;;;;;;;14.93;61.18;102630.63;5060375;28;20040;-56
2023/04/18 07:39:46;;;;;;;8.32;5.90;;;;;;;14.92;61.10;102626.19;5064486;28;20031;-56
2023/04/18 07:42:11;;;;;;;6.40;5.60;;;;;;;14.92;61.20;102625.34;5065863;28;20094;-56
2023/04/18 07:44:37;;;;;;;7.80;6.13;;;;;;;14.92;61.25;102618.16;5066477;28;20474;-56
2023/04/18 07:47:02;;;;;;;7.28;5.97;;;;;;;14.93;61.12;102621.72;5068216;28;20032;-56
2023/04/18 07:49:28;;;;;;;7.78;5.43;;;;;;;14.92;61.12;102625.34;5060490;28;20064;-56
2023/04/18 07:51:53;;;;;;;7.38;5.03;;;;;;;14.92;61.09;102626.19;5065292;28;20490;-56
2023/04/18 07:54:18;;;;;;;7.28;5.65;;;;;;;14.92;61.11;102623.50;5061188;28;20085;-56
2023/04/18 07:56:44;;;;;;;7.72;5.65;;;;;;;14.92;61.16;102626.19;5067167;28;20044;-56
2023/04/18 07:59:10;;;;;;;7.07;5.10;;;;;;;14.92;60.88;102625.34;5065407;28;20082;-56
2023/04/18 08:01:35;;;;;;;6.95;5.45;;;;;;;14.93;61.11;102637.81;5065848;28;20077;-56
2023/04/18 08:04:00;;;;;;;8.10;5.82;;;;;;;14.93;60.79;102635.13;5062386;28;20133;-56
2023/04/18 08:06:27;;;;;;;8.23;6.05;;;;;;;14.93;61.12;102635.13;5065193;28;20033;-56
2023/04/18 08:08:52;;;;;;;6.32;5.38;;;;;;;14.92;61.04;102626.19;5064950;28;20056;-56
2023/04/18 08:11:18;;;;;;;6.68;4.97;;;;;;;14.93;61.03;102632.47;5065935;28;20462;-56
2023/04/18 08:13:43;;;;;;;9.55;5.72;;;;;;;14.93;60.73;102633.31;5069655;28;20028;-56
2023/04/18 08:16:08;;;;;;;7.30;5.25;;;;;;;14.94;60.60;102642.22;5068877;28;20033;-56
2023/04/18 08:18:34;;;;;;;7.10;5.57;;;;;;;14.93;60.97;102637.81;5069623;28;20454;-56
2023/04/18 08:21:00;;;;;;;6.65;5.00;;;;;;;14.94;60.70;102637.72;5050912;28;20037;-56
2023/04/18 08:23:25;;;;;;;7.80;5.40;;;;;;;14.94;60.96;102639.53;5068816;28;20033;-56
2023/04/18 08:25:50;;;;;;;7.45;5.65;;;;;;;14.94;60.95;102636.84;5069330;28;20091;-56
2023/04/18 08:28:16;;;;;;;6.18;5.05;;;;;;;14.95;60.46;102638.59;5054747;28;20119;-56
2023/04/18 08:30:42;;;;;;;5.75;5.15;;;;;;;14.93;60.80;102641.34;5068637;28;20041;-56
2023/04/18 08:33:08;;;;;;;5.47;4.72;;;;;;;14.94;60.91;102639.53;5068165;28;20029;-56
2023/04/18 08:35:34;;;;;;;6.22;4.82;;;;;;;14.93;60.42;102643.19;5069310;28;20544;-56
2023/04/18 08:38:00;;;;;;;7.82;4.78;;;;;;;14.95;60.77;102646.66;5051814;28;20056;-56
2023/04/18 08:40:25;;;;;;;6.72;5.40;;;;;;;14.93;60.51;102644.03;5067725;28;20071;-56
2023/04/18 08:42:52;;;;;;;7.68;5.28;;;;;;;14.94;60.71;102636.84;5069162;28;20068;-56
2023/04/18 08:45:18;;;;;;;5.93;5.22;;;;;;;14.93;60.49;102636.00;5068211;28;20385;-56
2023/04/18 08:47:44;;;;;;;6.45;5.32;;;;;;;14.93;60.67;102627.09;5068508;28;20033;-56
2023/04/18 08:50:10;;;;;;;7.28;5.20;;;;;;;14.95;60.66;102635.91;5061704;28;20045;-56
2023/04/18 08:52:38;;;;;;;5.72;4.47;;;;;;;14.94;60.75;102634.16;5071217;28;20492;-56
2023/04/18 08:55:04;;;;;;;7.32;5.00;;;;;;;14.95;60.67;102630.56;5069365;28;20550;-56
2023/04/18 08:57:30;;;;;;;6.25;4.70;;;;;;;14.95;60.42;102633.25;5067987;28;20041;-56
2023/04/18 08:59:59;;;;;;;5.05;4.55;;;;;;;14.95;60.73;102628.72;5050232;28;20028;-56
2023/04/18 09:02:41;;;;;;;5.13;4.22;;;;;;;14.97;60.40;102623.28;5068976;28;20030;-56
2023/04/18 09:05:15;;;;;;;5.25;4.43;;;;;;;14.97;60.63;102624.16;5068256;28;20083;-56
2023/04/18 09:07:41;;;;;;;6.95;4.32;;;;;;;14.95;60.45;102620.69;5065264;28;20073;-56
2023/04/18 09:10:08;;;;;;;7.40;4.82;;;;;;;14.96;60.25;102616.19;5068420;28;20040;-56
2023/04/18 09:12:41;;;;;;;5.15;4.40;;;;;;;14.95;60.47;102622.50;5069645;28;20456;-56
2023/04/18 09:15:15;;;;;;;5.38;4.80;;;;;;;14.96;60.34;102613.50;5068701;28;20027;-56
2023/04/18 09:17:45;;;;;;;6.38;4.60;;;;;;;14.95;60.32;102609.94;5068769;28;20525;-56
2023/04/18 09:20:29;;;;;;;6.43;5.18;;;;;;;14.97;60.60;102610.72;5066865;28;20148;-56
2023/04/18 09:22:56;;;;;;;5.97;4.75;;;;;;;14.96;60.35;102616.19;5067990;28;20071;-56
2023/04/18 09:25:36;;;;;;;5.60;4.53;;;;;;;14.94;60.07;102612.72;5067354;28;20032;-56
2023/04/18 09:28:03;;;;;;;6.53;4.75;;;;;;;14.95;59.94;102619.81;5067937;28;20140;-56
2023/04/18 09:30:38;;;;;;;5.88;4.70;;;;;;;14.96;60.40;102621.53;5068521;28;20040;-56
2023/04/18 09:33:06;;;;;;;5.88;4.57;;;;;;;14.95;60.13;102617.16;5061930;28;20025;-56
2023/04/18 09:35:32;;;;;;;4.63;4.18;;;;;;;14.94;60.05;102618.94;5063388;28;20029;-56
2023/04/18 09:37:57;;;;;;;5.70;4.47;;;;;;;14.95;60.35;102620.69;5062055;28;20570;-56
2023/04/18 09:40:22;;;;;;;5.05;4.38;;;;;;;14.95;60.27;102617.16;5064413;28;20032;-56
2023/04/18 09:42:52;;;;;;;5.22;4.05;;;;;;;14.95;60.33;102618.00;5067917;28;20123;-56
2023/04/18 09:45:17;;;;;;;6.60;5.00;;;;;;;14.95;60.40;102614.47;5062004;28;20513;-56
2023/04/18 09:47:43;;;;;;;5.68;4.45;;;;;;;14.95;60.17;102609.94;5063089;28;20056;-56
2023/04/18 09:50:09;;;;;;;5.53;4.25;;;;;;;14.95;59.86;102606.41;5074092;28;20118;-56
2023/04/18 09:52:39;;;;;;;5.38;4.15;;;;;;;14.96;60.24;102605.44;5052008;28;20544;-56
2023/04/18 09:55:10;;;;;;;7.20;4.72;;;;;;;14.97;59.95;102612.56;5068439;28;20028;-56
2023/04/18 09:57:40;;;;;;;4.88;4.10;;;;;;;14.96;59.90;102600.94;5067278;28;20469;-56
2023/04/18 10:00:30;;;;;;;5.45;4.38;;;;;;;14.97;59.99;102594.63;5067908;28;20055;-56
2023/04/18 10:02:58;;;;;;;4.57;4.05;;;;;;;14.97;60.29;102602.69;5066232;28;20037;-56
2023/04/18 10:05:30;;;;;;;4.82;3.58;;;;;;;14.98;60.05;102603.53;5066297;28;20033;-56
2023/04/18 10:07:56;;;;;;;5.05;4.30;;;;;;;14.97;60.26;102604.50;5064782;28;20070;-56
2023/04/18 10:10:23;;;;;;;4.55;3.72;;;;;;;14.97;59.70;102607.19;5067206;28;20537;-56
2023/04/18 10:12:49;;;;;;;5.20;4.13;;;;;;;14.97;60.11;102612.56;5073356;28;20025;-56
2023/04/18 10:15:16;;;;;;;4.43;3.80;;;;;;;14.96;59.84;102611.66;5067204;28;20032;-56
2023/04/18 10:17:42;;;;;;;5.10;4.10;;;;;;;14.97;60.16;102613.41;5066404;28;20041;-56
2023/04/18 10:20:14;;;;;;;5.00;4.32;;;;;;;14.97;59.95;102618.78;5049331;28;20034;-56
2023/04/18 10:22:39;;;;;;;4.93;4.25;;;;;;;14.98;59.60;102615.16;5067496;28;20039;-56
2023/04/18 10:25:05;;;;;;;4.55;4.15;;;;;;;14.98;59.98;102614.28;5066864;28;20036;-56
2023/04/18 10:27:55;;;;;;;3.67;3.33;;;;;;;15.00;59.81;102613.25;5061644;28;20042;-56
2023/04/18 10:30:40;;;;;;;4.40;4.00;;;;;;;15.00;60.04;102617.75;5051682;28;20041;-56
2023/04/18 10:33:32;;;;;;;4.63;3.63;;;;;;;15.01;59.95;102609.63;5066136;28;20031;-56
2023/04/18 10:36:10;;;;;;;4.00;3.60;;;;;;;15.02;59.58;102613.16;5066878;28;20059;-56
2023/04/18 10:38:44;;;;;;;4.57;3.55;;;;;;;15.01;59.51;102625.72;5073078;28;20094;-56
2023/04/18 10:41:31;;;;;;;5.35;4.05;;;;;;;15.02;59.93;102618.53;5066818;28;20371;-56
2023/04/18 10:44:06;;;;;;;5.15;3.80;;;;;;;15.00;59.83;102621.31;5058097;28;20064;-56
2023/04/18 10:46:32;;;;;;;4.50;3.72;;;;;;;15.00;59.37;102612.38;5066686;28;20050;-56
2023/04/18 10:49:21;;;;;;;4.63;4.07;;;;;;;15.03;60.05;102613.06;5062546;28;20053;-56
2023/04/18 10:51:48;;;;;;;4.47;3.45;;;;;;;15.01;59.82;102604.25;5066290;28;20032;-56
2023/04/18 10:54:38;;;;;;;3.85;3.47;;;;;;;15.02;59.73;102610.47;5065749;28;20044;-56
2023/04/18 10:57:06;;;;;;;4.07;3.67;;;;;;;15.01;59.41;102608.75;5065334;28;20360;-56
2023/04/18 10:59:33;;;;;;;3.42;3.13;;;;;;;15.01;59.32;102614.13;5066863;28;20517;-56
2023/04/18 11:02:05;;;;;;;3.15;2.88;;;;;;;14.99;59.58;102606.16;5062440;28;20039;-56
2023/04/18 11:04:30;;;;;;;4.47;3.20;;;;;;;15.00;59.23;102612.38;5067713;28;20025;-56
2023/04/18 11:06:57;;;;;;;4.25;3.65;;;;;;;15.00;59.52;102607.91;5065710;28;20040;-56
2023/04/18 11:09:23;;;;;;;3.83;3.03;;;;;;;15.00;59.55;102607.91;5066137;28;20094;-56
2023/04/18 11:12:09;;;;;;;3.55;3.22;;;;;;;15.02;59.79;102613.16;5066567;28;20044;-56
2023/04/18 11:14:49;;;;;;;3.13;2.83;;;;;;;15.02;59.41;102605.09;5061237;28;20028;-56
2023/04/18 11:17:22;;;;;;;3.40;2.92;;;;;;;15.01;59.53;102606.06;5059352;28;20029;-56
2023/04/18 11:19:48;;;;;;;3.28;2.97;;;;;;;15.01;59.28;102601.56;5065534;28;20044;-56
2023/04/18 11:22:15;;;;;;;3.50;3.20;;;;;;;15.00;59.06;102601.66;5066932;28;20029;-56